sensor_id;sensor_type;location;lat;lon;timestamp;pressure;altitude;pressure_sealevel;temperature;humidity
7834;BME280;3962;42.696;23.354;2023-01-05T00:02:04;96049.06;;;7.10;93.46
7834;BME280;3962;42.696;23.354;2023-01-05T00:04:31;96048.72;;;7.14;94.16
7834;BME280;3962;42.696;23.354;2023-01-05T00:06:58;96053.09;;;6.91;94.43
7834;BME280;3962;42.696;23.354;2023-01-05T00:09:25;96057.34;;;6.93;95.13
7834;BME280;3962;42.696;23.354;2023-01-05T00:11:53;96058.38;;;7.03;94.72
7834;BME280;3962;42.696;23.354;2023-01-05T00:14:37;96042.19;;;7.07;94.67
7834;BME280;3962;42.696;23.354;2023-01-05T00:17:23;96041.22;;;7.08;95.05
7834;BME280;3962;42.696;23.354;2023-01-05T00:20:13;96040.16;;;7.11;94.38
7834;BME280;3962;42.696;23.354;2023-01-05T00:22:57;96036.88;;;7.07;94.40
7834;BME280;3962;42.696;23.354;2023-01-05T00:25:25;96036.31;;;7.15;94.41
7834;BME280;3962;42.696;23.354;2023-01-05T00:27:54;96034.63;;;7.14;94.49
7834;BME280;3962;42.696;23.354;2023-01-05T00:30:24;96031.78;;;7.17;94.13
7834;BME280;3962;42.696;23.354;2023-01-05T00:32:51;96016.34;;;7.11;93.29
7834;BME280;3962;42.696;23.354;2023-01-05T00:35:18;96020.25;;;7.18;94.08
7834;BME280;3962;42.696;23.354;2023-01-05T00:37:45;96025.41;;;7.19;93.51
7834;BME280;3962;42.696;23.354;2023-01-05T00:40:14;96023.41;;;7.10;93.16
7834;BME280;3962;42.696;23.354;2023-01-05T00:42:41;96019.22;;;7.08;94.31
7834;BME280;3962;42.696;23.354;2023-01-05T00:45:12;96024.63;;;7.07;93.68
7834;BME280;3962;42.696;23.354;2023-01-05T00:47:39;96016.13;;;7.02;94.37
7834;BME280;3962;42.696;23.354;2023-01-05T00:50:07;96026.38;;;7.18;93.95
7834;BME280;3962;42.696;23.354;2023-01-05T00:52:34;96023.91;;;7.28;94.19
7834;BME280;3962;42.696;23.354;2023-01-05T00:55:01;96025.50;;;7.30;93.64
7834;BME280;3962;42.696;23.354;2023-01-05T00:57:28;96020.75;;;7.35;92.42
7834;BME280;3962;42.696;23.354;2023-01-05T00:59:55;96018.81;;;7.37;92.72
7834;BME280;3962;42.696;23.354;2023-01-05T01:02:23;96020.13;;;7.32;91.91
7834;BME280;3962;42.696;23.354;2023-01-05T01:04:50;96026.97;;;7.34;92.08
7834;BME280;3962;42.696;23.354;2023-01-05T01:07:17;96025.72;;;7.40;92.21
7834;BME280;3962;42.696;23.354;2023-01-05T01:09:43;96025.28;;;7.33;91.66
7834;BME280;3962;42.696;23.354;2023-01-05T01:12:10;96026.47;;;7.29;91.55
7834;BME280;3962;42.696;23.354;2023-01-05T01:14:37;96019.72;;;7.13;92.13
7834;BME280;3962;42.696;23.354;2023-01-05T01:17:04;96019.00;;;7.11;92.38
7834;BME280;3962;42.696;23.354;2023-01-05T01:19:32;96025.13;;;7.11;92.57
7834;BME280;3962;42.696;23.354;2023-01-05T01:21:59;96015.72;;;7.07;92.33
7834;BME280;3962;42.696;23.354;2023-01-05T01:24:27;96008.06;;;7.15;92.75
7834;BME280;3962;42.696;23.354;2023-01-05T01:26:54;96005.34;;;7.17;93.31
7834;BME280;3962;42.696;23.354;2023-01-05T01:29:22;95986.75;;;6.94;92.33
7834;BME280;3962;42.696;23.354;2023-01-05T01:31:51;95996.47;;;7.06;92.82
7834;BME280;3962;42.696;23.354;2023-01-05T01:34:19;95992.03;;;6.94;93.23
7834;BME280;3962;42.696;23.354;2023-01-05T01:36:47;95997.22;;;6.95;92.97
7834;BME280;3962;42.696;23.354;2023-01-05T01:39:14;95975.81;;;6.98;93.38
7834;BME280;3962;42.696;23.354;2023-01-05T01:41:41;95977.19;;;7.03;93.43
7834;BME280;3962;42.696;23.354;2023-01-05T01:47:16;95976.75;;;7.09;92.41
7834;BME280;3962;42.696;23.354;2023-01-05T01:49:45;95966.06;;;7.11;92.27
7834;BME280;3962;42.696;23.354;2023-01-05T01:52:13;95964.88;;;7.15;92.14
7834;BME280;3962;42.696;23.354;2023-01-05T01:54:40;95963.72;;;7.19;92.70
7834;BME280;3962;42.696;23.354;2023-01-05T01:57:09;95968.44;;;7.26;91.71
7834;BME280;3962;42.696;23.354;2023-01-05T01:59:37;95955.09;;;7.28;91.85
7834;BME280;3962;42.696;23.354;2023-01-05T02:02:05;95956.16;;;7.25;91.97
7834;BME280;3962;42.696;23.354;2023-01-05T02:04:35;95950.88;;;7.25;91.96
7834;BME280;3962;42.696;23.354;2023-01-05T02:07:03;95947.94;;;7.17;92.06
7834;BME280;3962;42.696;23.354;2023-01-05T02:09:31;95941.72;;;7.06;92.40
7834;BME280;3962;42.696;23.354;2023-01-05T02:12:04;95938.78;;;6.98;92.88
7834;BME280;3962;42.696;23.354;2023-01-05T02:14:47;95939.66;;;6.99;93.48
7834;BME280;3962;42.696;23.354;2023-01-05T02:17:21;95929.16;;;6.97;93.46
7834;BME280;3962;42.696;23.354;2023-01-05T02:20:19;95922.91;;;6.98;93.66
7834;BME280;3962;42.696;23.354;2023-01-05T02:23:15;95925.69;;;6.97;93.06
7834;BME280;3962;42.696;23.354;2023-01-05T02:26:27;95931.41;;;6.91;93.50
7834;BME280;3962;42.696;23.354;2023-01-05T02:29:27;95926.25;;;6.77;93.60
7834;BME280;3962;42.696;23.354;2023-01-05T02:32:03;95924.03;;;6.71;94.07
7834;BME280;3962;42.696;23.354;2023-01-05T02:34:40;95920.66;;;6.69;95.62
7834;BME280;3962;42.696;23.354;2023-01-05T02:37:14;95928.38;;;6.72;95.82
7834;BME280;3962;42.696;23.354;2023-01-05T02:39:49;95924.28;;;6.68;95.53
7834;BME280;3962;42.696;23.354;2023-01-05T02:42:19;95923.63;;;6.64;95.19
7834;BME280;3962;42.696;23.354;2023-01-05T02:44:48;95921.72;;;6.66;95.94
7834;BME280;3962;42.696;23.354;2023-01-05T02:47:40;95923.41;;;6.67;95.20
7834;BME280;3962;42.696;23.354;2023-01-05T02:50:12;95920.38;;;6.61;95.87
7834;BME280;3962;42.696;23.354;2023-01-05T02:52:46;95919.50;;;6.60;96.06
7834;BME280;3962;42.696;23.354;2023-01-05T02:55:18;95899.44;;;6.58;95.99
7834;BME280;3962;42.696;23.354;2023-01-05T02:57:51;95901.44;;;6.67;96.70
7834;BME280;3962;42.696;23.354;2023-01-05T03:00:23;95902.50;;;6.64;96.27
7834;BME280;3962;42.696;23.354;2023-01-05T03:02:57;95889.19;;;6.53;96.50
7834;BME280;3962;42.696;23.354;2023-01-05T03:05:31;95897.31;;;6.63;96.42
7834;BME280;3962;42.696;23.354;2023-01-05T03:08:00;95897.31;;;6.63;96.66
7834;BME280;3962;42.696;23.354;2023-01-05T03:10:35;95898.25;;;6.62;95.71
7834;BME280;3962;42.696;23.354;2023-01-05T03:13:22;95881.56;;;6.61;96.03
7834;BME280;3962;42.696;23.354;2023-01-05T03:16:10;95878.94;;;6.61;95.86
7834;BME280;3962;42.696;23.354;2023-01-05T03:18:39;95864.13;;;6.59;96.37
7834;BME280;3962;42.696;23.354;2023-01-05T03:21:21;95865.38;;;6.66;96.51
7834;BME280;3962;42.696;23.354;2023-01-05T03:23:49;95856.59;;;6.65;96.71
7834;BME280;3962;42.696;23.354;2023-01-05T03:26:34;95850.44;;;6.65;95.67
7834;BME280;3962;42.696;23.354;2023-01-05T03:29:19;95848.03;;;6.62;96.63
7834;BME280;3962;42.696;23.354;2023-01-05T03:32:07;95850.28;;;6.55;96.96
7834;BME280;3962;42.696;23.354;2023-01-05T03:34:58;95862.75;;;6.53;95.74
7834;BME280;3962;42.696;23.354;2023-01-05T03:37:49;95853.13;;;6.52;97.00
7834;BME280;3962;42.696;23.354;2023-01-05T03:40:20;95842.34;;;6.55;96.26
7834;BME280;3962;42.696;23.354;2023-01-05T03:42:49;95840.66;;;6.54;96.17
7834;BME280;3962;42.696;23.354;2023-01-05T03:45:16;95845.94;;;6.54;96.67
7834;BME280;3962;42.696;23.354;2023-01-05T03:47:43;95851.44;;;6.51;96.42
7834;BME280;3962;42.696;23.354;2023-01-05T03:50:12;95853.97;;;6.53;95.88
7834;BME280;3962;42.696;23.354;2023-01-05T03:52:39;95851.44;;;6.51;97.35
7834;BME280;3962;42.696;23.354;2023-01-05T03:55:07;95855.25;;;6.47;97.35
7834;BME280;3962;42.696;23.354;2023-01-05T03:57:34;95840.97;;;6.37;97.64
7834;BME280;3962;42.696;23.354;2023-01-05T04:00:03;95839.59;;;6.44;97.49
7834;BME280;3962;42.696;23.354;2023-01-05T04:02:30;95850.16;;;6.44;97.54
7834;BME280;3962;42.696;23.354;2023-01-05T04:04:57;95848.28;;;6.46;97.14
7834;BME280;3962;42.696;23.354;2023-01-05T04:07:25;95848.28;;;6.46;97.00
7834;BME280;3962;42.696;23.354;2023-01-05T04:09:52;95835.28;;;6.43;98.09
7834;BME280;3962;42.696;23.354;2023-01-05T04:12:19;95834.84;;;6.49;97.80
7834;BME280;3962;42.696;23.354;2023-01-05T04:14:46;95824.50;;;6.46;97.51
7834;BME280;3962;42.696;23.354;2023-01-05T04:17:13;95836.31;;;6.41;97.43
7834;BME280;3962;42.696;23.354;2023-01-05T04:19:39;95833.91;;;6.38;97.01
7834;BME280;3962;42.696;23.354;2023-01-05T04:22:06;95824.19;;;6.38;97.63
7834;BME280;3962;42.696;23.354;2023-01-05T04:24:34;95827.78;;;6.37;97.99
7834;BME280;3962;42.696;23.354;2023-01-05T04:27:01;95824.19;;;6.38;97.92
7834;BME280;3962;42.696;23.354;2023-01-05T04:29:28;95816.47;;;6.35;98.56
7834;BME280;3962;42.696;23.354;2023-01-05T04:31:55;95822.63;;;6.36;97.96
7834;BME280;3962;42.696;23.354;2023-01-05T04:34:21;95820.94;;;6.35;98.25
7834;BME280;3962;42.696;23.354;2023-01-05T04:36:48;95831.50;;;6.35;98.13
7834;BME280;3962;42.696;23.354;2023-01-05T04:39:15;95826.00;;;6.38;97.59
7834;BME280;3962;42.696;23.354;2023-01-05T04:41:44;95822.72;;;6.34;97.41
7834;BME280;3962;42.696;23.354;2023-01-05T04:44:13;95752.44;;;5.96;98.07
7834;BME280;3962;42.696;23.354;2023-01-05T04:46:40;95831.38;;;6.36;97.95
7834;BME280;3962;42.696;23.354;2023-01-05T04:49:08;95811.50;;;6.31;98.15
7834;BME280;3962;42.696;23.354;2023-01-05T04:51:35;95828.97;;;6.33;97.89
7834;BME280;3962;42.696;23.354;2023-01-05T04:54:02;95836.25;;;6.30;98.29
7834;BME280;3962;42.696;23.354;2023-01-05T04:56:29;95828.97;;;6.33;98.24
7834;BME280;3962;42.696;23.354;2023-01-05T04:58:57;95835.09;;;6.34;97.67
7834;BME280;3962;42.696;23.354;2023-01-05T05:01:24;95834.88;;;6.37;97.80
7834;BME280;3962;42.696;23.354;2023-01-05T05:03:51;95840.56;;;6.43;97.72
7834;BME280;3962;42.696;23.354;2023-01-05T05:06:18;95831.66;;;6.44;97.63
7834;BME280;3962;42.696;23.354;2023-01-05T05:08:45;95839.06;;;6.52;97.52
7834;BME280;3962;42.696;23.354;2023-01-05T05:11:12;95838.78;;;6.44;97.30
7834;BME280;3962;42.696;23.354;2023-01-05T05:13:39;95841.09;;;6.48;97.13
7834;BME280;3962;42.696;23.354;2023-01-05T05:16:07;95852.00;;;6.44;96.78
7834;BME280;3962;42.696;23.354;2023-01-05T05:18:34;95856.66;;;6.40;97.20
7834;BME280;3962;42.696;23.354;2023-01-05T05:21:01;95845.13;;;6.41;96.54
7834;BME280;3962;42.696;23.354;2023-01-05T05:23:28;95840.16;;;6.37;97.27
7834;BME280;3962;42.696;23.354;2023-01-05T05:25:55;95843.84;;;6.47;96.33
7834;BME280;3962;42.696;23.354;2023-01-05T05:28:21;95846.59;;;6.45;97.15
7834;BME280;3962;42.696;23.354;2023-01-05T05:30:52;95837.81;;;6.45;96.34
7834;BME280;3962;42.696;23.354;2023-01-05T05:33:21;95833.16;;;6.48;96.06
7834;BME280;3962;42.696;23.354;2023-01-05T05:35:47;95830.00;;;6.43;96.51
7834;BME280;3962;42.696;23.354;2023-01-05T05:38:14;95815.19;;;6.41;96.31
7834;BME280;3962;42.696;23.354;2023-01-05T05:40:41;95824.06;;;6.40;96.14
7834;BME280;3962;42.696;23.354;2023-01-05T05:43:08;95815.09;;;6.42;95.65
7834;BME280;3962;42.696;23.354;2023-01-05T05:45:35;95806.44;;;6.40;96.52
7834;BME280;3962;42.696;23.354;2023-01-05T05:48:02;95806.53;;;6.39;96.03
7834;BME280;3962;42.696;23.354;2023-01-05T05:50:31;95809.16;;;6.39;96.43
7834;BME280;3962;42.696;23.354;2023-01-05T05:52:58;95801.53;;;6.47;96.00
7834;BME280;3962;42.696;23.354;2023-01-05T05:55:25;95802.59;;;6.44;96.37
7834;BME280;3962;42.696;23.354;2023-01-05T05:57:52;95802.06;;;6.52;96.20
7834;BME280;3962;42.696;23.354;2023-01-05T06:00:19;95797.22;;;6.46;96.06
7834;BME280;3962;42.696;23.354;2023-01-05T06:02:45;95802.81;;;6.41;95.91
7834;BME280;3962;42.696;23.354;2023-01-05T06:05:12;95787.31;;;6.37;96.06
7834;BME280;3962;42.696;23.354;2023-01-05T06:07:40;95795.22;;;6.37;95.54
7834;BME280;3962;42.696;23.354;2023-01-05T06:10:08;95774.53;;;6.31;96.16
7834;BME280;3962;42.696;23.354;2023-01-05T06:12:35;95792.06;;;6.32;95.60
7834;BME280;3962;42.696;23.354;2023-01-05T06:15:02;95790.19;;;6.34;96.16
7834;BME280;3962;42.696;23.354;2023-01-05T06:17:29;95782.84;;;6.37;95.64
7834;BME280;3962;42.696;23.354;2023-01-05T06:19:56;95788.75;;;6.41;96.21
7834;BME280;3962;42.696;23.354;2023-01-05T06:22:23;95776.00;;;6.35;95.91
7834;BME280;3962;42.696;23.354;2023-01-05T06:24:51;95783.59;;;6.39;95.34
7834;BME280;3962;42.696;23.354;2023-01-05T06:27:18;95780.41;;;6.47;96.74
7834;BME280;3962;42.696;23.354;2023-01-05T06:29:45;95781.88;;;6.51;95.76
7834;BME280;3962;42.696;23.354;2023-01-05T06:32:11;95782.06;;;6.48;95.94
7834;BME280;3962;42.696;23.354;2023-01-05T06:34:38;95781.03;;;6.50;95.23
7834;BME280;3962;42.696;23.354;2023-01-05T06:37:05;95777.69;;;6.59;95.04
7834;BME280;3962;42.696;23.354;2023-01-05T06:39:32;95781.25;;;6.71;96.24
7834;BME280;3962;42.696;23.354;2023-01-05T06:42:00;95781.53;;;6.79;95.64
7834;BME280;3962;42.696;23.354;2023-01-05T06:44:27;95790.72;;;6.86;95.36
7834;BME280;3962;42.696;23.354;2023-01-05T06:46:53;95781.59;;;6.90;94.32
7834;BME280;3962;42.696;23.354;2023-01-05T06:49:20;95788.69;;;6.89;94.06
7834;BME280;3962;42.696;23.354;2023-01-05T06:51:47;95777.31;;;7.00;95.11
7834;BME280;3962;42.696;23.354;2023-01-05T06:54:14;95779.72;;;7.03;94.14
7834;BME280;3962;42.696;23.354;2023-01-05T06:56:41;95783.31;;;7.02;93.77
7834;BME280;3962;42.696;23.354;2023-01-05T06:59:11;95782.09;;;6.95;93.98
7834;BME280;3962;42.696;23.354;2023-01-05T07:01:38;95775.97;;;6.94;94.12
7834;BME280;3962;42.696;23.354;2023-01-05T07:04:05;95775.13;;;6.94;92.85
7834;BME280;3962;42.696;23.354;2023-01-05T07:06:33;95766.69;;;6.89;93.80
7834;BME280;3962;42.696;23.354;2023-01-05T07:09:00;95773.25;;;6.83;93.06
7834;BME280;3962;42.696;23.354;2023-01-05T07:11:27;95773.13;;;6.74;93.30
7834;BME280;3962;42.696;23.354;2023-01-05T07:13:54;95777.44;;;6.75;93.92
7834;BME280;3962;42.696;23.354;2023-01-05T07:16:22;95780.56;;;6.80;93.78
7834;BME280;3962;42.696;23.354;2023-01-05T07:18:49;95772.25;;;6.73;93.48
7834;BME280;3962;42.696;23.354;2023-01-05T07:21:15;95771.28;;;6.74;94.56
7834;BME280;3962;42.696;23.354;2023-01-05T07:23:42;95764.66;;;6.69;94.24
7834;BME280;3962;42.696;23.354;2023-01-05T07:26:09;95772.16;;;6.75;94.51
7834;BME280;3962;42.696;23.354;2023-01-05T07:28:36;95774.34;;;6.81;94.81
7834;BME280;3962;42.696;23.354;2023-01-05T07:31:04;95770.41;;;6.86;94.46
7834;BME280;3962;42.696;23.354;2023-01-05T07:33:33;95765.84;;;6.88;94.58
7834;BME280;3962;42.696;23.354;2023-01-05T07:36:01;95757.06;;;6.88;93.89
7834;BME280;3962;42.696;23.354;2023-01-05T07:38:28;95753.75;;;6.97;94.55
7834;BME280;3962;42.696;23.354;2023-01-05T07:40:57;95752.81;;;7.08;94.28
7834;BME280;3962;42.696;23.354;2023-01-05T07:43:24;95736.84;;;7.10;93.47
7834;BME280;3962;42.696;23.354;2023-01-05T07:45:50;95741.94;;;7.24;92.78
7834;BME280;3962;42.696;23.354;2023-01-05T07:48:19;95749.03;;;7.34;92.53
7834;BME280;3962;42.696;23.354;2023-01-05T07:50:47;95742.09;;;7.44;91.68
7834;BME280;3962;42.696;23.354;2023-01-05T07:53:13;95744.38;;;7.49;91.48
7834;BME280;3962;42.696;23.354;2023-01-05T07:55:40;95744.03;;;7.64;91.78
7834;BME280;3962;42.696;23.354;2023-01-05T07:58:07;95742.72;;;7.70;90.60
7834;BME280;3962;42.696;23.354;2023-01-05T08:00:34;95743.31;;;7.73;91.03
7834;BME280;3962;42.696;23.354;2023-01-05T08:03:01;95738.25;;;7.81;90.28
7834;BME280;3962;42.696;23.354;2023-01-05T08:05:27;95733.59;;;7.96;89.44
7834;BME280;3962;42.696;23.354;2023-01-05T08:07:59;95731.41;;;8.01;88.82
7834;BME280;3962;42.696;23.354;2023-01-05T08:10:26;95735.75;;;7.91;89.24
7834;BME280;3962;42.696;23.354;2023-01-05T08:13:00;95725.16;;;7.91;88.85
7834;BME280;3962;42.696;23.354;2023-01-05T08:15:45;95722.41;;;7.92;87.82
7834;BME280;3962;42.696;23.354;2023-01-05T08:18:11;95718.16;;;7.90;88.38
7834;BME280;3962;42.696;23.354;2023-01-05T08:20:38;95722.13;;;7.95;88.08
7834;BME280;3962;42.696;23.354;2023-01-05T08:23:07;95722.16;;;8.06;87.60
7834;BME280;3962;42.696;23.354;2023-01-05T08:25:34;95720.59;;;8.04;87.38
7834;BME280;3962;42.696;23.354;2023-01-05T08:28:01;95728.50;;;8.15;87.10
7834;BME280;3962;42.696;23.354;2023-01-05T08:30:29;95731.44;;;8.23;87.44
7834;BME280;3962;42.696;23.354;2023-01-05T08:32:56;95727.31;;;8.30;87.20
7834;BME280;3962;42.696;23.354;2023-01-05T08:35:23;95719.84;;;8.24;86.69
7834;BME280;3962;42.696;23.354;2023-01-05T08:37:49;95718.88;;;8.25;86.33
7834;BME280;3962;42.696;23.354;2023-01-05T08:40:18;95721.34;;;8.59;86.14
7834;BME280;3962;42.696;23.354;2023-01-05T08:42:44;95708.63;;;9.46;83.41
7834;BME280;3962;42.696;23.354;2023-01-05T08:45:12;95715.72;;;10.07;79.89
7834;BME280;3962;42.696;23.354;2023-01-05T08:47:39;95726.31;;;10.37;79.30
7834;BME280;3962;42.696;23.354;2023-01-05T08:50:07;95721.03;;;10.47;77.34
7834;BME280;3962;42.696;23.354;2023-01-05T08:52:34;95711.03;;;11.45;75.43
7834;BME280;3962;42.696;23.354;2023-01-05T08:55:02;95707.56;;;12.36;72.48
7834;BME280;3962;42.696;23.354;2023-01-05T08:57:30;95711.69;;;12.93;68.31
7834;BME280;3962;42.696;23.354;2023-01-05T08:59:57;95706.25;;;12.94;67.10
7834;BME280;3962;42.696;23.354;2023-01-05T09:02:24;95696.78;;;13.00;67.50
7834;BME280;3962;42.696;23.354;2023-01-05T09:04:51;95682.50;;;13.09;66.53
7834;BME280;3962;42.696;23.354;2023-01-05T09:07:18;95683.81;;;13.22;65.66
7834;BME280;3962;42.696;23.354;2023-01-05T09:09:44;95672.22;;;13.14;65.48
7834;BME280;3962;42.696;23.354;2023-01-05T09:12:11;95659.31;;;13.09;65.67
7834;BME280;3962;42.696;23.354;2023-01-05T09:14:39;95661.06;;;13.01;66.52
7834;BME280;3962;42.696;23.354;2023-01-05T09:17:07;95652.59;;;13.23;65.05
7834;BME280;3962;42.696;23.354;2023-01-05T09:19:33;95641.56;;;13.69;63.51
7834;BME280;3962;42.696;23.354;2023-01-05T09:22:00;95629.38;;;13.49;63.90
7834;BME280;3962;42.696;23.354;2023-01-05T09:24:27;95627.91;;;12.94;64.61
7834;BME280;3962;42.696;23.354;2023-01-05T09:26:55;95617.56;;;13.26;64.87
7834;BME280;3962;42.696;23.354;2023-01-05T09:29:22;95611.38;;;13.08;64.31
7834;BME280;3962;42.696;23.354;2023-01-05T09:31:50;95612.50;;;13.23;65.09
7834;BME280;3962;42.696;23.354;2023-01-05T09:34:17;95612.97;;;13.01;64.25
7834;BME280;3962;42.696;23.354;2023-01-05T09:36:44;95611.28;;;12.65;65.46
7834;BME280;3962;42.696;23.354;2023-01-05T09:39:10;95609.72;;;12.45;65.81
7834;BME280;3962;42.696;23.354;2023-01-05T09:41:41;95604.34;;;12.54;66.56
7834;BME280;3962;42.696;23.354;2023-01-05T09:44:16;95582.47;;;12.06;67.17
7834;BME280;3962;42.696;23.354;2023-01-05T09:46:46;95575.44;;;11.78;67.94
7834;BME280;3962;42.696;23.354;2023-01-05T09:49:22;95572.84;;;11.96;68.69
7834;BME280;3962;42.696;23.354;2023-01-05T09:51:54;95564.56;;;12.16;67.44
7834;BME280;3962;42.696;23.354;2023-01-05T09:54:26;95571.22;;;12.30;67.36
7834;BME280;3962;42.696;23.354;2023-01-05T09:56:54;95560.88;;;11.73;68.04
7834;BME280;3962;42.696;23.354;2023-01-05T09:59:24;95554.66;;;11.45;69.61
7834;BME280;3962;42.696;23.354;2023-01-05T10:01:55;95554.47;;;11.56;69.22
7834;BME280;3962;42.696;23.354;2023-01-05T10:04:27;95548.97;;;11.67;69.23
7834;BME280;3962;42.696;23.354;2023-01-05T10:06:59;95550.97;;;11.65;68.44
7834;BME280;3962;42.696;23.354;2023-01-05T10:09:29;95554.00;;;11.70;67.89
7834;BME280;3962;42.696;23.354;2023-01-05T10:12:01;95537.09;;;11.52;69.07
7834;BME280;3962;42.696;23.354;2023-01-05T10:14:50;95543.69;;;11.48;68.15
7834;BME280;3962;42.696;23.354;2023-01-05T10:17:21;95539.66;;;11.44;69.08
7834;BME280;3962;42.696;23.354;2023-01-05T10:19:50;95532.75;;;11.51;68.61
7834;BME280;3962;42.696;23.354;2023-01-05T10:22:32;95536.16;;;11.80;67.52
7834;BME280;3962;42.696;23.354;2023-01-05T10:25:04;95539.28;;;11.93;67.44
7834;BME280;3962;42.696;23.354;2023-01-05T10:27:38;95524.44;;;11.91;67.45
7834;BME280;3962;42.696;23.354;2023-01-05T10:30:15;95516.69;;;11.70;67.58
7834;BME280;3962;42.696;23.354;2023-01-05T10:32:56;95508.38;;;11.46;67.50
7834;BME280;3962;42.696;23.354;2023-01-05T10:35:38;95510.34;;;11.44;67.76
7834;BME280;3962;42.696;23.354;2023-01-05T10:38:16;95510.34;;;11.44;67.95
7834;BME280;3962;42.696;23.354;2023-01-05T10:40:56;95512.56;;;11.58;68.04
7834;BME280;3962;42.696;23.354;2023-01-05T10:43:47;95507.44;;;11.74;67.99
7834;BME280;3962;42.696;23.354;2023-01-05T10:46:16;95494.50;;;11.97;66.80
7834;BME280;3962;42.696;23.354;2023-01-05T10:48:45;95480.41;;;11.87;66.75
7834;BME280;3962;42.696;23.354;2023-01-05T10:51:14;95479.16;;;11.54;67.95
7834;BME280;3962;42.696;23.354;2023-01-05T10:53:41;95475.53;;;11.82;67.08
7834;BME280;3962;42.696;23.354;2023-01-05T10:56:13;95474.22;;;11.86;66.93
7834;BME280;3962;42.696;23.354;2023-01-05T10:58:42;95467.47;;;12.09;66.24
7834;BME280;3962;42.696;23.354;2023-01-05T11:01:22;95466.94;;;12.41;65.93
7834;BME280;3962;42.696;23.354;2023-01-05T11:03:53;95468.69;;;12.50;64.74
7834;BME280;3962;42.696;23.354;2023-01-05T11:06:24;95466.56;;;12.36;65.41
7834;BME280;3962;42.696;23.354;2023-01-05T11:08:53;95459.94;;;12.05;66.04
7834;BME280;3962;42.696;23.354;2023-01-05T11:11:22;95449.25;;;12.05;66.12
7834;BME280;3962;42.696;23.354;2023-01-05T11:13:52;95454.00;;;12.28;65.38
7834;BME280;3962;42.696;23.354;2023-01-05T11:16:22;95449.09;;;12.41;64.59
7834;BME280;3962;42.696;23.354;2023-01-05T11:18:52;95452.13;;;12.64;63.85
7834;BME280;3962;42.696;23.354;2023-01-05T11:21:21;95441.66;;;12.70;63.84
7834;BME280;3962;42.696;23.354;2023-01-05T11:23:50;95441.28;;;12.91;63.34
7834;BME280;3962;42.696;23.354;2023-01-05T11:26:46;95445.38;;;12.95;62.96
7834;BME280;3962;42.696;23.354;2023-01-05T11:29:14;95447.09;;;12.86;63.42
7834;BME280;3962;42.696;23.354;2023-01-05T11:31:46;95439.41;;;12.83;63.44
7834;BME280;3962;42.696;23.354;2023-01-05T11:34:28;95423.91;;;12.87;62.52
7834;BME280;3962;42.696;23.354;2023-01-05T11:36:59;95425.41;;;12.89;62.35
7834;BME280;3962;42.696;23.354;2023-01-05T11:39:29;95432.72;;;12.62;64.48
7834;BME280;3962;42.696;23.354;2023-01-05T11:42:06;95428.22;;;12.80;64.14
7834;BME280;3962;42.696;23.354;2023-01-05T11:44:34;95427.22;;;12.81;64.17
7834;BME280;3962;42.696;23.354;2023-01-05T11:47:03;95422.34;;;12.76;63.38
7834;BME280;3962;42.696;23.354;2023-01-05T11:49:32;95417.06;;;12.84;62.91
7834;BME280;3962;42.696;23.354;2023-01-05T11:52:00;95413.34;;;12.77;63.22
7834;BME280;3962;42.696;23.354;2023-01-05T11:54:32;95422.25;;;12.94;63.56
7834;BME280;3962;42.696;23.354;2023-01-05T11:57:11;95412.41;;;13.12;62.07
7834;BME280;3962;42.696;23.354;2023-01-05T11:59:39;95403.81;;;13.00;62.07
7834;BME280;3962;42.696;23.354;2023-01-05T12:05:26;95407.31;;;13.01;62.00
7834;BME280;3962;42.696;23.354;2023-01-05T12:08:05;95403.16;;;12.98;61.35
7834;BME280;3962;42.696;23.354;2023-01-05T12:10:54;95396.44;;;12.94;61.73
7834;BME280;3962;42.696;23.354;2023-01-05T12:13:44;95401.81;;;13.36;61.56
7834;BME280;3962;42.696;23.354;2023-01-05T12:16:44;95393.16;;;13.42;60.22
7834;BME280;3962;42.696;23.354;2023-01-05T12:19:27;95403.16;;;13.40;60.27
7834;BME280;3962;42.696;23.354;2023-01-05T12:22:28;95404.16;;;13.39;57.82
7834;BME280;3962;42.696;23.354;2023-01-05T12:25:07;95382.25;;;13.35;57.85
7834;BME280;3962;42.696;23.354;2023-01-05T12:27:51;95361.69;;;13.20;57.63
7834;BME280;3962;42.696;23.354;2023-01-05T12:30:25;95349.47;;;13.17;57.93
7834;BME280;3962;42.696;23.354;2023-01-05T12:33:13;95350.53;;;13.32;57.71
7834;BME280;3962;42.696;23.354;2023-01-05T12:35:59;95338.88;;;13.41;57.99
7834;BME280;3962;42.696;23.354;2023-01-05T12:38:35;95335.25;;;13.17;58.61
7834;BME280;3962;42.696;23.354;2023-01-05T12:44:18;95351.34;;;12.91;58.10
7834;BME280;3962;42.696;23.354;2023-01-05T12:46:59;95353.72;;;12.94;57.88
7834;BME280;3962;42.696;23.354;2023-01-05T12:49:36;95345.97;;;12.83;58.52
7834;BME280;3962;42.696;23.354;2023-01-05T12:52:08;95351.94;;;13.03;57.64
7834;BME280;3962;42.696;23.354;2023-01-05T12:54:40;95353.63;;;12.86;59.69
7834;BME280;3962;42.696;23.354;2023-01-05T12:57:15;95352.50;;;12.63;61.27
7834;BME280;3962;42.696;23.354;2023-01-05T12:59:50;95350.97;;;12.61;61.61
7834;BME280;3962;42.696;23.354;2023-01-05T13:02:27;95355.22;;;12.71;61.51
7834;BME280;3962;42.696;23.354;2023-01-05T13:04:59;95355.63;;;12.84;61.32
7834;BME280;3962;42.696;23.354;2023-01-05T13:07:33;95357.50;;;12.92;61.06
7834;BME280;3962;42.696;23.354;2023-01-05T13:10:06;95364.78;;;12.82;62.19
7834;BME280;3962;42.696;23.354;2023-01-05T13:12:40;95367.00;;;12.86;62.42
7834;BME280;3962;42.696;23.354;2023-01-05T13:15:15;95359.31;;;12.83;61.82
7834;BME280;3962;42.696;23.354;2023-01-05T13:17:44;95353.81;;;12.93;61.66
7834;BME280;3962;42.696;23.354;2023-01-05T13:20:23;95353.22;;;12.73;61.16
7834;BME280;3962;42.696;23.354;2023-01-05T13:22:55;95353.94;;;12.50;62.27
7834;BME280;3962;42.696;23.354;2023-01-05T13:25:28;95359.31;;;12.58;61.82
7834;BME280;3962;42.696;23.354;2023-01-05T13:27:58;95363.31;;;12.62;61.60
7834;BME280;3962;42.696;23.354;2023-01-05T13:30:27;95361.59;;;12.78;61.97
7834;BME280;3962;42.696;23.354;2023-01-05T13:33:07;95355.31;;;12.87;61.83
7834;BME280;3962;42.696;23.354;2023-01-05T13:35:48;95350.06;;;12.78;61.90
7834;BME280;3962;42.696;23.354;2023-01-05T13:39:03;95349.50;;;12.66;61.49
7834;BME280;3962;42.696;23.354;2023-01-05T13:42:01;95345.72;;;12.77;61.98
7834;BME280;3962;42.696;23.354;2023-01-05T13:44:58;95339.69;;;12.67;62.29
7834;BME280;3962;42.696;23.354;2023-01-05T13:47:54;95331.19;;;12.71;62.14
7834;BME280;3962;42.696;23.354;2023-01-05T13:50:42;95326.47;;;12.65;61.53